Flight Track Log - Related Links

Times and Time Zones

All times are in EDT time to prevent confusion due to time zone crossing. See the N101WR flight status page for this flight to view local times or setup timezone preferences in your user account.


Time Position Orientation Groundspeed Altitude Reporting Facility
EDT Latitude Longitude Course Direction KTS MPH feet Rate Location/Type
Wed 07:22:49 PM 26.6750 -80.0161 40° Northeast 190 219 3,800  Level Miami Center
Wed 07:23:49 PM 26.7092 -79.9844 297° West 242 278 5,800 2,100 Climbing Miami Center
Wed 07:24:49 PM 26.7431 -80.0600 289° West 268 308 8,000 2,250 Climbing Miami Center
Wed 07:25:49 PM 26.7664 -80.1350 290° West 274 315 10,300 2,300 Climbing Miami Center
Wed 07:26:49 PM 26.7936 -80.2172 287° West 279 321 12,600 2,250 Climbing Miami Center
Wed 07:27:49 PM 26.8206 -80.3133 287° West 290 334 14,800 2,050 Climbing Miami Center
Wed 07:28:49 PM 26.8456 -80.4050 285° West 302 348 16,700 1,900 Climbing Miami Center
Wed 07:29:49 PM 26.8683 -80.5033 285° West 313 360 18,600 1,950 Climbing Miami Center
Wed 07:30:49 PM 26.8908 -80.5950 288° West 313 360 20,600 1,700 Climbing Miami Center
Wed 07:31:49 PM 26.9178 -80.6867 290° West 318 366 22,000 700 Climbing Miami Center
Wed 07:32:49 PM 26.9506 -80.7878 314° West 326 375 22,000 500 Level Miami Center
Wed 07:33:49 PM 27.0153 -80.8622 324° Northwest 331 381 23,000 700 Climbing Miami Center
Wed 07:34:49 PM 27.0969 -80.9281 324° Northwest 336 387 23,400 950 Climbing Miami Center
Wed 07:35:49 PM 27.1786 -80.9939 323° Northwest 354 407 24,900 1,550 Climbing Miami Center
Wed 07:36:49 PM 27.2603 -81.0622 324° Northwest 365 420 26,500 1,550 Climbing Miami Center
Wed 07:37:49 PM 27.3397 -81.1283 323° Northwest 360 414 28,000 750 Climbing Miami Center
Wed 07:38:49 PM 27.4211 -81.1967 323° Northwest 365 420 28,000  Level Miami Center
Wed 07:39:49 PM 27.5025 -81.2653 324° Northwest 365 420 28,000  Level Miami Center
Wed 07:40:49 PM 27.5819 -81.3294 323° Northwest 360 414 28,000  Level Miami Center
Wed 07:41:49 PM 27.6431 -81.3808 324° Northwest 360 414 28,000  Level Miami Center
Wed 07:42:49 PM 27.7367 -81.4572 324° Northwest 351 404 28,000  Level Miami Center
Wed 07:46:10 PM 28.0086 -81.6844 324° Northwest 367 422 28,000 253 Level Jacksonville Center
Wed 07:47:10 PM 28.0969 -81.7561 322° Northwest 391 450 29,100 1,050 Climbing Jacksonville Center
Wed 07:48:10 PM 28.1811 -81.8306 323° Northwest 380 437 30,100 1,000 Climbing Jacksonville Center
Wed 07:49:10 PM 28.2650 -81.9028 306° West 385 443 31,100 950 Climbing Jacksonville Center
Wed 07:50:10 PM 28.3283 -82.0011 306° West 374 430 32,000 800 Climbing Jacksonville Center
Wed 07:51:10 PM 28.3894 -82.0975 307° West 379 436 32,700 800 Climbing Jacksonville Center
Wed 07:52:10 PM 28.4528 -82.1936 306° West 379 436 33,600 900 Climbing Jacksonville Center
Wed 07:53:10 PM 28.5136 -82.2900 306° West 379 436 34,500 800 Climbing Jacksonville Center
Wed 07:54:10 PM 28.5747 -82.3844 305° West 379 436 35,200 700 Climbing Jacksonville Center
Wed 07:55:10 PM 28.6292 -82.4739 306° West 379 436 35,900 750 Climbing Jacksonville Center
Wed 07:56:10 PM 28.6922 -82.5731 306° West 374 430 36,700 850 Climbing Jacksonville Center
Wed 07:57:10 PM 28.7508 -82.6653 307° West 367 422 37,600 700 Climbing Jacksonville Center
Wed 07:58:10 PM 28.8094 -82.7550 306° West 362 417 38,100 500 Climbing Jacksonville Center
Wed 07:59:10 PM 28.8678 -82.8475 306° West 362 417 38,600 400 Climbing Jacksonville Center
Wed 08:00:10 PM 28.9264 -82.9400 306° West 362 417 38,900 300 Climbing Jacksonville Center
Wed 08:01:10 PM 28.9867 -83.0350 306° West 357 411 39,200 300 Climbing Jacksonville Center
Wed 08:02:10 PM 29.0450 -83.1278 306° West 357 411 39,500 350 Climbing Jacksonville Center
Wed 08:03:10 PM 29.1033 -83.2206 313° West 363 418 39,900 450 Climbing Jacksonville Center
Wed 08:04:10 PM 29.1739 -83.3064 314° West 363 418 40,400 500 Climbing Jacksonville Center
Wed 08:05:10 PM 29.2447 -83.3900 317° Northwest 363 418 40,900 400 Climbing Jacksonville Center
Wed 08:06:10 PM 29.3153 -83.4667 314° West 357 411 41,200 300 Climbing Jacksonville Center
Wed 08:07:10 PM 29.3839 -83.5481 316° Northwest 357 411 41,500 300 Climbing Jacksonville Center
Wed 08:08:10 PM 29.4544 -83.6272 316° Northwest 357 411 41,800 250 Climbing Jacksonville Center
Wed 08:09:10 PM 29.5247 -83.7064 316° Northwest 357 411 42,000 150 Climbing Jacksonville Center
Wed 08:10:10 PM 29.5933 -83.7836 315° West 357 411 42,100 150 Climbing Jacksonville Center
Wed 08:11:10 PM 29.6617 -83.8631 314° West 357 411 42,300 200 Climbing Jacksonville Center
Wed 08:12:10 PM 29.7297 -83.9450 318° Northwest 351 404 42,500 250 Climbing Jacksonville Center
Wed 08:13:10 PM 29.8003 -84.0175 323° Northwest 351 404 42,800 250 Climbing Jacksonville Center
Wed 08:14:10 PM 29.8686 -84.0758 335° Northwest 346 398 43,000 100 Climbing Jacksonville Center
Wed 08:15:10 PM 29.9558 -84.1225 343° North 346 398 43,000  Level Jacksonville Center
Wed 08:16:10 PM 30.0514 -84.1572 344° North 345 397 43,000  Level Jacksonville Center
Wed 08:17:10 PM 30.1472 -84.1897 342° North 356 410 43,000  Level Jacksonville Center
Wed 08:18:10 PM 30.2428 -84.2247 340° North 356 410 43,000  Level Jacksonville Center
Wed 08:19:10 PM 30.3364 -84.2644 333° Northwest 350 403 43,000  Level Jacksonville Center
Wed 08:20:10 PM 30.4256 -84.3164 332° Northwest 350 403 43,000  Level Jacksonville Center
Wed 08:21:10 PM 30.5128 -84.3706 331° Northwest 350 403 43,000  Level Jacksonville Center
Wed 08:22:10 PM 30.5997 -84.4275 327° Northwest 350 403 43,000  Level Jacksonville Center
Wed 08:23:10 PM 30.6825 -84.4892 318° Northwest 355 409 43,000  Level Jacksonville Center
Wed 08:25:40 PM 30.8767 -84.6897 307° West 357 411 43,000  Level Atlanta Center
Wed 08:26:40 PM 30.9367 -84.7819 309° West 362 417 43,000  Level Atlanta Center
Wed 08:27:40 PM 31.0008 -84.8744 311° West 367 422 43,000  Level Atlanta Center
Wed 08:28:40 PM 31.0692 -84.9650 312° West 372 428 43,000  Level Atlanta Center
Wed 08:29:40 PM 31.1394 -85.0553 311° West 372 428 43,000  Level Atlanta Center
Wed 08:30:40 PM 31.2053 -85.1433 311° West 372 428 43,000  Level Atlanta Center
Wed 08:31:40 PM 31.2753 -85.2392 310° West 377 434 43,000  Level Atlanta Center
Wed 08:32:40 PM 31.3411 -85.3322 310° West 382 440 43,000  Level Atlanta Center
Wed 08:33:40 PM 31.4092 -85.4258 311° West 377 434 43,000  Level Atlanta Center
Wed 08:34:40 PM 31.4789 -85.5194 307° West 382 440 43,000  Level Atlanta Center
Wed 08:35:40 PM 31.5364 -85.6081 310° West 377 434 43,000  Level Atlanta Center
Wed 08:36:40 PM 31.6039 -85.7017 309° West 377 434 43,000  Level Atlanta Center
Wed 08:37:40 PM 31.6694 -85.7981 308° West 377 434 43,000  Level Atlanta Center
Wed 08:38:40 PM 31.7408 -85.9069 310° West 382 440 43,000  Level Atlanta Center
Wed 08:39:40 PM 31.8103 -86.0061 310° West 389 448 43,000  Level Atlanta Center
Wed 08:40:40 PM 31.8694 -86.0906 309° West 389 448 43,000  Level Atlanta Center
Wed 08:41:40 PM 31.9428 -86.1975 308° West 377 434 43,000  Level Atlanta Center
Wed 08:42:40 PM 32.0078 -86.2969 305° West 377 434 43,000  Level Atlanta Center
Wed 08:43:40 PM 32.0706 -86.4017 298° West 383 441 43,000  Level Atlanta Center
Wed 08:44:40 PM 32.1206 -86.5108 300° West 383 441 43,000  Level Atlanta Center
Wed 08:45:40 PM 32.1725 -86.6178 297° West 377 434 43,000  Level Atlanta Center
Wed 08:46:40 PM 32.2183 -86.7247 299° West 377 434 43,000  Level Atlanta Center
Wed 08:47:40 PM 32.2700 -86.8367 299° West 371 427 43,000  Level Atlanta Center
Wed 08:48:40 PM 32.3139 -86.9289 299° West 371 427 43,000  Level Atlanta Center
Wed 08:49:40 PM 32.3656 -87.0389 298° West 371 427 43,000  Level Atlanta Center
Wed 08:50:40 PM 32.4111 -87.1414 300° West 371 427 43,000  Level Atlanta Center
Wed 08:53:05 PM 32.5344 -87.4003 297° West 375 432 43,000  Level Memphis Center
Wed 08:54:05 PM 32.5808 -87.5072 298° West 375 432 43,000  Level Memphis Center
Wed 08:55:05 PM 32.6314 -87.6192 299° West 370 426 43,000  Level Memphis Center
Wed 08:56:05 PM 32.6817 -87.7261 297° West 370 426 43,000  Level Memphis Center
Wed 08:57:05 PM 32.7300 -87.8383 300° West 365 420 43,000  Level Memphis Center
Wed 08:58:05 PM 32.7778 -87.9358 298° West 357 411 43,000  Level Memphis Center
Wed 08:59:05 PM 32.8256 -88.0433 299° West 362 417 43,000  Level Memphis Center
Wed 09:00:05 PM 32.8758 -88.1533 297° West 367 422 43,000  Level Memphis Center
Wed 09:01:05 PM 32.9236 -88.2636 299° West 367 422 43,000  Level Memphis Center
Wed 09:02:05 PM 32.9756 -88.3761 297° West 367 422 43,000  Level Memphis Center
Wed 09:03:05 PM 33.0231 -88.4867 300° West 372 428 43,000  Level Memphis Center
Wed 09:04:05 PM 33.0747 -88.5947 298° West 372 428 43,000  Level Memphis Center
Wed 09:05:05 PM 33.1244 -88.7078 299° West 372 428 43,000  Level Memphis Center
Wed 09:06:05 PM 33.1739 -88.8158 297° West 377 434 43,000  Level Memphis Center
Wed 09:07:05 PM 33.2231 -88.9294 298° West 383 441 43,000  Level Memphis Center
Wed 09:08:05 PM 33.2722 -89.0403 297° West 383 441 43,000  Level Memphis Center
Wed 09:09:05 PM 33.3258 -89.1639 299° West 383 441 43,000  Level Memphis Center
Wed 09:10:05 PM 33.3769 -89.2750 297° West 383 441 43,000  Level Memphis Center
Wed 09:11:05 PM 33.4258 -89.3889 297° West 383 441 43,000  Level Memphis Center
Wed 09:12:05 PM 33.4747 -89.5056 298° West 383 441 43,000  Level Memphis Center
Wed 09:13:05 PM 33.5233 -89.6172 298° West 383 441 43,000  Level Memphis Center
Wed 09:14:05 PM 33.5742 -89.7339 298° West 383 441 43,000  Level Memphis Center
Wed 09:15:05 PM 33.6247 -89.8483 297° West 383 441 43,000  Level Memphis Center
Wed 09:16:05 PM 33.6733 -89.9628 296° West 388 447 43,000  Level Memphis Center
Wed 09:17:05 PM 33.7217 -90.0800 298° West 388 447 43,000  Level Memphis Center
Wed 09:18:05 PM 33.7697 -90.1897 297° West 388 447 43,000  Level Memphis Center
Wed 09:19:05 PM 33.8136 -90.2947 295° West 388 447 43,000  Level Memphis Center
Wed 09:20:05 PM 33.8597 -90.4122 298° West 388 447 43,000  Level Memphis Center
Wed 09:21:05 PM 33.9158 -90.5400 296° West 388 447 43,000  Level Memphis Center
Wed 09:22:05 PM 33.9617 -90.6528 298° West 382 440 43,000  Level Memphis Center
Wed 09:23:05 PM 34.0133 -90.7706 296° West 382 440 43,000  Level Memphis Center
Wed 09:24:05 PM 34.0589 -90.8836 297° West 387 445 43,000  Level Memphis Center
Wed 09:25:05 PM 34.1086 -90.9994 297° West 387 445 43,000  Level Memphis Center
Wed 09:26:05 PM 34.1581 -91.1178 297° West 387 445 43,000  Level Memphis Center
Wed 09:27:05 PM 34.2072 -91.2361 296° West 387 445 43,000  Level Memphis Center
Wed 09:28:05 PM 34.2503 -91.3422 297° West 387 445 43,000  Level Memphis Center
Wed 09:29:05 PM 34.2972 -91.4558 297° West 389 448 43,000  Level Memphis Center
Wed 09:30:05 PM 34.3464 -91.5747 295° West 384 442 43,000  Level Memphis Center
Wed 09:31:05 PM 34.3931 -91.6936 297° West 384 442 43,000  Level Memphis Center
Wed 09:32:05 PM 34.4458 -91.8178 295° West 384 442 43,000  Level Memphis Center
Wed 09:33:05 PM 34.4925 -91.9372 296° West 384 442 43,000  Level Memphis Center
Wed 09:34:05 PM 34.5411 -92.0564 297° West 389 448 43,000  Level Memphis Center
Wed 09:35:05 PM 34.5894 -92.1711 295° West 389 448 43,000  Level Memphis Center
Wed 09:36:05 PM 34.6356 -92.2931 298° West 389 448 43,000  Level Memphis Center
Wed 09:37:05 PM 34.6858 -92.4106 296° West 389 448 43,000  Level Memphis Center
Wed 09:38:05 PM 34.7339 -92.5303 295° West 389 448 43,000  Level Memphis Center
Wed 09:39:05 PM 34.7797 -92.6506 297° West 389 448 43,000  Level Memphis Center
Wed 09:40:05 PM 34.8278 -92.7681 296° West 389 448 43,000  Level Memphis Center
Wed 09:41:06 PM 34.8753 -92.8883 295° West 389 448 43,000  Level Memphis Center
Wed 09:42:05 PM 34.9131 -92.9858 295° West 389 448 43,000  Level Memphis Center
Wed 09:43:05 PM 34.9622 -93.1164 297° West 389 448 43,000  Level Memphis Center
Wed 09:44:05 PM 35.0117 -93.2372 295° West 389 448 43,000  Level Memphis Center
Wed 09:45:05 PM 35.0589 -93.3606 296° West 389 448 43,000  Level Memphis Center
Wed 09:46:05 PM 35.1061 -93.4792 312° West 389 448 43,000 -50 Level Memphis Center
Wed 09:47:05 PM 35.1806 -93.5808 324° Northwest 389 448 42,900 -350 Descending Memphis Center
Wed 09:48:05 PM 35.2722 -93.6633 325° Northwest 394 453 42,300 -900 Descending Memphis Center
Wed 09:49:05 PM 35.3642 -93.7433 321° Northwest 401 461 41,100 -1,150 Descending Memphis Center
Wed 09:50:05 PM 35.4533 -93.8311 323° Northwest 407 468 40,000 -1,250 Descending Memphis Center
Wed 09:51:05 PM 35.5428 -93.9139 325° Northwest 407 468 38,600 -1,600 Descending Memphis Center
Wed 09:52:05 PM 35.6386 -93.9972 320° Northwest 407 468 36,800 -1,300 Descending Memphis Center
Wed 09:53:05 PM 35.7336 -94.0958 324° Northwest 407 468 36,000 -450 Descending Memphis Center
Wed 09:54:05 PM 35.8228 -94.1767 323° Northwest 407 468 35,900 -1,050 Descending Memphis Center
Wed 09:55:05 PM 35.9161 -94.2631 309° West 407 468 33,900 -2,400 Descending Memphis Center
Wed 09:56:05 PM 35.9897 -94.3769 277° West 413 475 31,100 -2,733 Descending Memphis Center
Wed 09:58:05 PM 36.0172 -94.6708 272° West 413 475 25,700 -2,667 Descending Memphis Center
Wed 09:59:05 PM 36.0206 -94.8147 272° West 426 490 23,100 -2,655 Descending Memphis Center
Wed 09:59:58 PM 36.0244 -94.9453 270° West 420 483 20,700 -2,675 Descending Kansas City Center
Wed 10:00:28 PM 36.0242 -95.0172 272° West 413 475 19,400 -2,660 Descending Kansas City Center
Wed 10:01:35 PM 36.0275 -95.1636 272° West 383 441 16,400 -2,551 Descending Kansas City Center
Wed 10:02:35 PM 36.0311 -95.2844 272° West 357 411 14,000 -2,182 Descending Kansas City Center
Wed 10:03:36 PM 36.0344 -95.4000 269° West 339 390 12,000 -1,983 Descending Kansas City Center
Wed 10:04:36 PM 36.0336 -95.5053 272° West 304 350 10,000 -1,884 Descending Kansas City Center
Wed 10:05:37 PM 36.0369 -95.6028 268° West 279 321 8,200 -1,770 Descending Kansas City Center
Wed 10:06:38 PM 36.0339 -95.6928 263° West 259 298 6,400 -1,686 Descending Kansas City Center
Wed 10:07:38 PM 36.0247 -95.7800 266° West 247 284 4,800 -1,438 Descending Kansas City Center
Wed 10:08:39 PM 36.0197 -95.8594 297° West 234 269 3,500 -992 Descending Kansas City Center
Wed 10:09:39 PM 36.0419 -95.9136 332° Northwest 214 246 2,800 -744 Descending Kansas City Center
Wed 10:10:40 PM 36.0856 -95.9428 250° West 155 178 2,000 -639 Descending Kansas City Center
Wed 10:11:41 PM 36.0767 -95.9733 201° Southwest 112 129 1,500 -574 Descending Kansas City Center
Wed 10:12:35 PM 36.0558 -95.9833 201° Southwest 105 121 900 -667 Descending Kansas City Center

Login

Don't have an account? Register now (free) for customized features, flight alerts, and more!